sensor_id;sensor_type;location;lat;lon;timestamp;pressure;altitude;pressure_sealevel;temperature;humidity
58975;BME280;44751;52.236;5.178;2023-04-28T00:02:17;101307.38;;;9.49;85.11
58975;BME280;44751;52.236;5.178;2023-04-28T00:04:44;101303.34;;;9.53;84.82
58975;BME280;44751;52.236;5.178;2023-04-28T00:07:11;101290.03;;;9.52;86.11
58975;BME280;44751;52.236;5.178;2023-04-28T00:09:37;101286.16;;;9.46;84.86
58975;BME280;44751;52.236;5.178;2023-04-28T00:12:05;101280.44;;;9.49;85.32
58975;BME280;44751;52.236;5.178;2023-04-28T00:14:31;101274.44;;;9.55;85.75
58975;BME280;44751;52.236;5.178;2023-04-28T00:16:58;101266.81;;;9.51;85.18
58975;BME280;44751;52.236;5.178;2023-04-28T00:19:24;101267.09;;;9.39;85.44
58975;BME280;44751;52.236;5.178;2023-04-28T00:22:00;101257.50;;;9.37;85.36
58975;BME280;44751;52.236;5.178;2023-04-28T00:24:27;101255.13;;;9.34;86.14
58975;BME280;44751;52.236;5.178;2023-04-28T00:26:53;101256.84;;;9.35;86.47
58975;BME280;44751;52.236;5.178;2023-04-28T00:29:21;101249.97;;;9.40;86.09
58975;BME280;44751;52.236;5.178;2023-04-28T00:31:47;101241.03;;;9.40;86.15
58975;BME280;44751;52.236;5.178;2023-04-28T00:34:19;101237.13;;;9.34;85.41
58975;BME280;44751;52.236;5.178;2023-04-28T00:36:45;101236.13;;;9.35;85.72
58975;BME280;44751;52.236;5.178;2023-04-28T00:39:11;101235.75;;;9.30;85.05
58975;BME280;44751;52.236;5.178;2023-04-28T00:41:38;101241.00;;;9.32;85.09
58975;BME280;44751;52.236;5.178;2023-04-28T00:44:10;101246.06;;;9.35;85.44
58975;BME280;44751;52.236;5.178;2023-04-28T00:46:36;101246.69;;;9.28;84.79
58975;BME280;44751;52.236;5.178;2023-04-28T00:49:03;101239.69;;;9.44;85.06
58975;BME280;44751;52.236;5.178;2023-04-28T00:51:29;101240.31;;;9.38;85.46
58975;BME280;44751;52.236;5.178;2023-04-28T00:53:57;101222.31;;;9.30;85.86
58975;BME280;44751;52.236;5.178;2023-04-28T00:56:27;101223.31;;;9.29;85.43
58975;BME280;44751;52.236;5.178;2023-04-28T00:58:55;101216.44;;;9.35;85.89
58975;BME280;44751;52.236;5.178;2023-04-28T01:01:22;101215.25;;;9.29;87.75
58975;BME280;44751;52.236;5.178;2023-04-28T01:03:49;101204.81;;;9.34;87.65
58975;BME280;44751;52.236;5.178;2023-04-28T01:06:16;101203.78;;;9.27;87.74
58975;BME280;44751;52.236;5.178;2023-04-28T01:08:47;101204.28;;;9.22;88.37
58975;BME280;44751;52.236;5.178;2023-04-28T01:11:14;101203.75;;;9.19;88.97
58975;BME280;44751;52.236;5.178;2023-04-28T01:13:40;101207.25;;;9.11;89.63
58975;BME280;44751;52.236;5.178;2023-04-28T01:16:07;101211.41;;;9.05;93.58
58975;BME280;44751;52.236;5.178;2023-04-28T01:18:33;101212.47;;;9.12;92.54
58975;BME280;44751;52.236;5.178;2023-04-28T01:21:00;101198.44;;;9.00;92.87
58975;BME280;44751;52.236;5.178;2023-04-28T01:23:30;101202.50;;;9.04;91.84
58975;BME280;44751;52.236;5.178;2023-04-28T01:25:57;101203.16;;;8.98;92.06
58975;BME280;44751;52.236;5.178;2023-04-28T01:28:23;101193.72;;;8.94;93.04
58975;BME280;44751;52.236;5.178;2023-04-28T01:30:50;101191.03;;;8.94;93.53
58975;BME280;44751;52.236;5.178;2023-04-28T01:33:16;101202.25;;;8.89;94.99
58975;BME280;44751;52.236;5.178;2023-04-28T01:35:45;101186.31;;;8.96;93.40
58975;BME280;44751;52.236;5.178;2023-04-28T01:38:19;101174.03;;;8.94;93.67
58975;BME280;44751;52.236;5.178;2023-04-28T01:40:45;101182.59;;;8.97;92.32
58975;BME280;44751;52.236;5.178;2023-04-28T01:43:11;101156.69;;;8.96;93.09
58975;BME280;44751;52.236;5.178;2023-04-28T01:45:38;101171.38;;;9.02;91.99
58975;BME280;44751;52.236;5.178;2023-04-28T01:48:08;101169.31;;;8.96;91.28
58975;BME280;44751;52.236;5.178;2023-04-28T01:50:35;101164.06;;;8.86;91.25
58975;BME280;44751;52.236;5.178;2023-04-28T01:53:02;101166.63;;;8.96;91.23
58975;BME280;44751;52.236;5.178;2023-04-28T01:55:28;101158.38;;;8.97;90.88
58975;BME280;44751;52.236;5.178;2023-04-28T01:57:55;101155.66;;;8.89;91.33
58975;BME280;44751;52.236;5.178;2023-04-28T02:00:35;101152.34;;;8.95;91.19
58975;BME280;44751;52.236;5.178;2023-04-28T02:03:01;101156.19;;;8.93;90.28
58975;BME280;44751;52.236;5.178;2023-04-28T02:05:28;101156.06;;;9.02;89.76
58975;BME280;44751;52.236;5.178;2023-04-28T02:07:54;101152.69;;;9.00;91.74
58975;BME280;44751;52.236;5.178;2023-04-28T02:10:24;101154.72;;;8.98;89.62
58975;BME280;44751;52.236;5.178;2023-04-28T02:12:51;101146.78;;;8.97;90.40
58975;BME280;44751;52.236;5.178;2023-04-28T02:15:17;101137.00;;;8.96;90.90
58975;BME280;44751;52.236;5.178;2023-04-28T02:17:44;101138.88;;;8.95;91.06
58975;BME280;44751;52.236;5.178;2023-04-28T02:20:10;101135.50;;;8.93;90.59
58975;BME280;44751;52.236;5.178;2023-04-28T02:22:38;101131.28;;;8.90;91.07
58975;BME280;44751;52.236;5.178;2023-04-28T02:25:05;101130.66;;;8.97;90.83
58975;BME280;44751;52.236;5.178;2023-04-28T02:27:31;101127.69;;;8.82;90.80
58975;BME280;44751;52.236;5.178;2023-04-28T02:29:58;101126.19;;;8.79;91.33
58975;BME280;44751;52.236;5.178;2023-04-28T02:32:24;101120.47;;;8.82;91.43
58975;BME280;44751;52.236;5.178;2023-04-28T02:34:54;101121.34;;;8.83;91.63
58975;BME280;44751;52.236;5.178;2023-04-28T02:37:20;101127.00;;;8.71;92.49
58975;BME280;44751;52.236;5.178;2023-04-28T02:39:51;101128.97;;;8.69;91.69
58975;BME280;44751;52.236;5.178;2023-04-28T02:42:17;101106.16;;;8.82;91.85
58975;BME280;44751;52.236;5.178;2023-04-28T02:44:44;101103.78;;;8.70;91.99
58975;BME280;44751;52.236;5.178;2023-04-28T02:47:11;101104.47;;;8.72;92.26
58975;BME280;44751;52.236;5.178;2023-04-28T02:49:42;101099.59;;;8.68;92.19
58975;BME280;44751;52.236;5.178;2023-04-28T02:52:08;101097.22;;;8.64;92.54
58975;BME280;44751;52.236;5.178;2023-04-28T02:54:35;101084.25;;;8.68;93.00
58975;BME280;44751;52.236;5.178;2023-04-28T02:57:01;101087.31;;;8.73;92.84
58975;BME280;44751;52.236;5.178;2023-04-28T02:59:31;101085.97;;;8.77;92.98
58975;BME280;44751;52.236;5.178;2023-04-28T03:02:00;101076.53;;;8.73;94.32
58975;BME280;44751;52.236;5.178;2023-04-28T03:04:27;101069.13;;;8.67;93.81
58975;BME280;44751;52.236;5.178;2023-04-28T03:06:53;101064.66;;;8.76;94.02
58975;BME280;44751;52.236;5.178;2023-04-28T03:09:19;101060.63;;;8.80;93.34
58975;BME280;44751;52.236;5.178;2023-04-28T03:11:46;101057.38;;;8.68;94.62
58975;BME280;44751;52.236;5.178;2023-04-28T03:14:22;101067.63;;;8.64;94.64
58975;BME280;44751;52.236;5.178;2023-04-28T03:16:49;101067.06;;;8.61;94.79
58975;BME280;44751;52.236;5.178;2023-04-28T03:19:15;101064.78;;;8.66;94.83
58975;BME280;44751;52.236;5.178;2023-04-28T03:21:41;101061.53;;;8.62;94.99
58975;BME280;44751;52.236;5.178;2023-04-28T03:24:08;101054.00;;;8.66;95.56
58975;BME280;44751;52.236;5.178;2023-04-28T03:26:34;101038.53;;;8.68;95.01
58975;BME280;44751;52.236;5.178;2023-04-28T03:29:03;101030.94;;;8.63;95.23
58975;BME280;44751;52.236;5.178;2023-04-28T03:31:29;101025.38;;;8.57;95.41
58975;BME280;44751;52.236;5.178;2023-04-28T03:33:55;101013.56;;;8.49;95.57
58975;BME280;44751;52.236;5.178;2023-04-28T03:36:26;101013.38;;;8.51;96.32
58975;BME280;44751;52.236;5.178;2023-04-28T03:38:54;101014.63;;;8.57;96.49
58975;BME280;44751;52.236;5.178;2023-04-28T03:41:21;101015.47;;;8.57;96.48
58975;BME280;44751;52.236;5.178;2023-04-28T03:43:47;101010.44;;;8.62;96.41
58975;BME280;44751;52.236;5.178;2023-04-28T03:46:14;101009.09;;;8.58;96.75
58975;BME280;44751;52.236;5.178;2023-04-28T03:48:41;101006.66;;;8.47;97.00
58975;BME280;44751;52.236;5.178;2023-04-28T03:51:07;100997.75;;;8.46;97.66
58975;BME280;44751;52.236;5.178;2023-04-28T03:53:33;100994.56;;;8.51;97.44
58975;BME280;44751;52.236;5.178;2023-04-28T03:56:00;100991.84;;;8.43;98.44
58975;BME280;44751;52.236;5.178;2023-04-28T03:58:26;100986.28;;;8.36;99.05
58975;BME280;44751;52.236;5.178;2023-04-28T04:00:53;100988.28;;;8.34;99.36
58975;BME280;44751;52.236;5.178;2023-04-28T04:03:19;100988.13;;;8.35;99.40
58975;BME280;44751;52.236;5.178;2023-04-28T04:05:50;100995.69;;;8.40;100.00
58975;BME280;44751;52.236;5.178;2023-04-28T04:08:16;100973.41;;;8.48;100.00
58975;BME280;44751;52.236;5.178;2023-04-28T04:10:43;100987.31;;;8.43;100.00
58975;BME280;44751;52.236;5.178;2023-04-28T04:13:10;100988.84;;;8.46;100.00
58975;BME280;44751;52.236;5.178;2023-04-28T04:15:36;100989.03;;;8.52;100.00
58975;BME280;44751;52.236;5.178;2023-04-28T04:18:03;100979.50;;;8.58;100.00
58975;BME280;44751;52.236;5.178;2023-04-28T04:20:29;100975.47;;;8.62;100.00
58975;BME280;44751;52.236;5.178;2023-04-28T04:22:58;100979.16;;;8.53;100.00
58975;BME280;44751;52.236;5.178;2023-04-28T04:25:25;100977.06;;;8.47;100.00
58975;BME280;44751;52.236;5.178;2023-04-28T04:27:52;100972.69;;;8.46;100.00
58975;BME280;44751;52.236;5.178;2023-04-28T04:30:18;100979.28;;;8.51;100.00
58975;BME280;44751;52.236;5.178;2023-04-28T04:32:54;100969.50;;;8.42;100.00
58975;BME280;44751;52.236;5.178;2023-04-28T04:35:20;100980.13;;;8.52;100.00
58975;BME280;44751;52.236;5.178;2023-04-28T04:37:47;100971.09;;;8.53;100.00
58975;BME280;44751;52.236;5.178;2023-04-28T04:40:13;100972.97;;;8.69;100.00
58975;BME280;44751;52.236;5.178;2023-04-28T04:42:47;100960.22;;;8.71;100.00
58975;BME280;44751;52.236;5.178;2023-04-28T04:45:13;100963.25;;;8.85;100.00
58975;BME280;44751;52.236;5.178;2023-04-28T04:47:40;100975.84;;;8.68;100.00
58975;BME280;44751;52.236;5.178;2023-04-28T04:50:07;100959.91;;;8.83;100.00
58975;BME280;44751;52.236;5.178;2023-04-28T04:52:35;100955.34;;;8.75;100.00
58975;BME280;44751;52.236;5.178;2023-04-28T04:55:05;100954.50;;;8.74;100.00
58975;BME280;44751;52.236;5.178;2023-04-28T04:57:31;100958.03;;;8.83;100.00
58975;BME280;44751;52.236;5.178;2023-04-28T04:59:58;100949.81;;;8.85;100.00
58975;BME280;44751;52.236;5.178;2023-04-28T05:02:24;100948.59;;;8.71;100.00
58975;BME280;44751;52.236;5.178;2023-04-28T05:04:54;100944.06;;;8.63;100.00
58975;BME280;44751;52.236;5.178;2023-04-28T05:07:22;100948.59;;;8.62;100.00
58975;BME280;44751;52.236;5.178;2023-04-28T05:09:48;100942.25;;;8.72;100.00
58975;BME280;44751;52.236;5.178;2023-04-28T05:12:15;100942.75;;;8.75;100.00
58975;BME280;44751;52.236;5.178;2023-04-28T05:14:41;100943.91;;;8.73;100.00
58975;BME280;44751;52.236;5.178;2023-04-28T05:17:07;100952.00;;;8.73;100.00
58975;BME280;44751;52.236;5.178;2023-04-28T05:19:37;100953.00;;;8.80;100.00
58975;BME280;44751;52.236;5.178;2023-04-28T05:22:09;100948.63;;;8.79;100.00
58975;BME280;44751;52.236;5.178;2023-04-28T05:24:35;100963.09;;;8.78;100.00
58975;BME280;44751;52.236;5.178;2023-04-28T05:27:02;100971.00;;;8.88;100.00
58975;BME280;44751;52.236;5.178;2023-04-28T05:29:28;100974.03;;;8.85;100.00
58975;BME280;44751;52.236;5.178;2023-04-28T07:41:50;100901.63;;;10.30;100.00
58975;BME280;44751;52.236;5.178;2023-04-28T07:44:16;100894.69;;;10.36;100.00
58975;BME280;44751;52.236;5.178;2023-04-28T07:46:48;100888.88;;;10.55;100.00
58975;BME280;44751;52.236;5.178;2023-04-28T07:49:16;100891.06;;;10.83;100.00
58975;BME280;44751;52.236;5.178;2023-04-28T07:51:42;100891.56;;;11.02;100.00
58975;BME280;44751;52.236;5.178;2023-04-28T07:54:09;100879.47;;;11.13;100.00
58975;BME280;44751;52.236;5.178;2023-04-28T07:56:35;100887.31;;;11.23;100.00
58975;BME280;44751;52.236;5.178;2023-04-28T07:59:12;100881.00;;;11.16;100.00
58975;BME280;44751;52.236;5.178;2023-04-28T08:01:39;100887.75;;;11.11;100.00
58975;BME280;44751;52.236;5.178;2023-04-28T08:04:06;100890.97;;;11.30;100.00
58975;BME280;44751;52.236;5.178;2023-04-28T08:06:33;100887.75;;;11.35;100.00
58975;BME280;44751;52.236;5.178;2023-04-28T08:09:04;100879.16;;;11.31;100.00
58975;BME280;44751;52.236;5.178;2023-04-28T08:11:31;100881.03;;;11.31;100.00
58975;BME280;44751;52.236;5.178;2023-04-28T08:13:58;100882.00;;;11.15;100.00
58975;BME280;44751;52.236;5.178;2023-04-28T08:16:27;100881.38;;;11.13;100.00
58975;BME280;44751;52.236;5.178;2023-04-28T08:19:04;100894.72;;;11.29;100.00
58975;BME280;44751;52.236;5.178;2023-04-28T08:21:31;100893.59;;;11.23;100.00
58975;BME280;44751;52.236;5.178;2023-04-28T08:23:58;100891.72;;;11.24;100.00
58975;BME280;44751;52.236;5.178;2023-04-28T08:26:24;100890.97;;;11.30;100.00
58975;BME280;44751;52.236;5.178;2023-04-28T08:28:53;100885.84;;;11.20;100.00
58975;BME280;44751;52.236;5.178;2023-04-28T08:31:19;100897.41;;;11.29;100.00
58975;BME280;44751;52.236;5.178;2023-04-28T08:33:46;100894.47;;;11.39;100.00
58975;BME280;44751;52.236;5.178;2023-04-28T08:36:15;100889.75;;;11.18;100.00
58975;BME280;44751;52.236;5.178;2023-04-28T08:38:43;100882.84;;;11.15;100.00
58975;BME280;44751;52.236;5.178;2023-04-28T08:41:14;100888.78;;;11.34;100.00
58975;BME280;44751;52.236;5.178;2023-04-28T08:43:44;100886.16;;;11.41;100.00
58975;BME280;44751;52.236;5.178;2023-04-28T08:46:10;100886.25;;;11.32;100.00
58975;BME280;44751;52.236;5.178;2023-04-28T08:48:41;100883.56;;;11.47;100.00
58975;BME280;44751;52.236;5.178;2023-04-28T11:05:28;100843.06;;;12.95;100.00
58975;BME280;44751;52.236;5.178;2023-04-28T11:13:35;100841.72;;;13.06;100.00
58975;BME280;44751;52.236;5.178;2023-04-28T11:16:02;100831.34;;;13.16;100.00
58975;BME280;44751;52.236;5.178;2023-04-28T11:18:53;100833.72;;;13.26;100.00
58975;BME280;44751;52.236;5.178;2023-04-28T11:21:18;100826.31;;;13.13;100.00
58975;BME280;44751;52.236;5.178;2023-04-28T11:23:45;100825.63;;;13.33;100.00
58975;BME280;44751;52.236;5.178;2023-04-28T11:26:12;100831.66;;;13.57;100.00
58975;BME280;44751;52.236;5.178;2023-04-28T11:28:51;100828.81;;;13.37;100.00
58975;BME280;44751;52.236;5.178;2023-04-28T11:31:19;100826.44;;;13.55;100.00
58975;BME280;44751;52.236;5.178;2023-04-28T11:33:52;100830.84;;;13.57;100.00
58975;BME280;44751;52.236;5.178;2023-04-28T11:36:35;100830.22;;;13.61;100.00
58975;BME280;44751;52.236;5.178;2023-04-28T11:39:06;100831.47;;;13.59;100.00
58975;BME280;44751;52.236;5.178;2023-04-28T11:41:39;100831.31;;;13.74;100.00
58975;BME280;44751;52.236;5.178;2023-04-28T11:44:21;100825.88;;;13.67;100.00
58975;BME280;44751;52.236;5.178;2023-04-28T11:46:51;100834.88;;;13.46;100.00
58975;BME280;44751;52.236;5.178;2023-04-28T11:49:23;100834.41;;;13.35;100.00
58975;BME280;44751;52.236;5.178;2023-04-28T11:51:50;100836.75;;;13.38;100.00
58975;BME280;44751;52.236;5.178;2023-04-28T11:54:21;100840.47;;;13.37;100.00
58975;BME280;44751;52.236;5.178;2023-04-28T11:56:48;100836.75;;;13.38;100.00
58975;BME280;44751;52.236;5.178;2023-04-28T11:59:15;100836.03;;;13.29;100.00
58975;BME280;44751;52.236;5.178;2023-04-28T12:01:48;100836.25;;;13.28;100.00
58975;BME280;44751;52.236;5.178;2023-04-28T12:04:38;100841.50;;;13.36;100.00
58975;BME280;44751;52.236;5.178;2023-04-28T12:09:35;100840.88;;;13.06;100.00
58975;BME280;44751;52.236;5.178;2023-04-28T12:12:07;100842.50;;;13.00;100.00
58975;BME280;44751;52.236;5.178;2023-04-28T12:17:32;100844.53;;;13.20;100.00
58975;BME280;44751;52.236;5.178;2023-04-28T12:20:04;100843.13;;;13.30;100.00
58975;BME280;44751;52.236;5.178;2023-04-28T12:22:42;100848.69;;;13.22;100.00
58975;BME280;44751;52.236;5.178;2023-04-28T12:25:17;100855.94;;;13.15;100.00
58975;BME280;44751;52.236;5.178;2023-04-28T12:28:05;100851.78;;;13.19;100.00
58975;BME280;44751;52.236;5.178;2023-04-28T12:30:36;100851.63;;;13.49;100.00
58975;BME280;44751;52.236;5.178;2023-04-28T12:33:04;100848.19;;;13.40;100.00
58975;BME280;44751;52.236;5.178;2023-04-28T12:35:33;100859.44;;;13.37;100.00
58975;BME280;44751;52.236;5.178;2023-04-28T12:38:00;100853.31;;;13.50;100.00
58975;BME280;44751;52.236;5.178;2023-04-28T12:40:29;100847.28;;;13.55;100.00
58975;BME280;44751;52.236;5.178;2023-04-28T12:42:55;100856.31;;;13.62;100.00
58975;BME280;44751;52.236;5.178;2023-04-28T12:45:22;100855.84;;;13.59;100.00
58975;BME280;44751;52.236;5.178;2023-04-28T12:47:48;100856.34;;;13.40;100.00
58975;BME280;44751;52.236;5.178;2023-04-28T12:50:27;100851.75;;;13.41;100.00
58975;BME280;44751;52.236;5.178;2023-04-28T12:52:56;100857.91;;;13.50;100.00
58975;BME280;44751;52.236;5.178;2023-04-28T12:55:23;100849.44;;;13.66;100.00
58975;BME280;44751;52.236;5.178;2023-04-28T12:57:52;100854.09;;;13.44;100.00
58975;BME280;44751;52.236;5.178;2023-04-28T13:00:20;100847.06;;;13.50;100.00
58975;BME280;44751;52.236;5.178;2023-04-28T13:02:48;100854.22;;;13.36;100.00
58975;BME280;44751;52.236;5.178;2023-04-28T13:05:14;100859.66;;;13.36;100.00
58975;BME280;44751;52.236;5.178;2023-04-28T13:07:41;100860.00;;;13.54;100.00
58975;BME280;44751;52.236;5.178;2023-04-28T13:10:09;100863.00;;;13.66;100.00
58975;BME280;44751;52.236;5.178;2023-04-28T13:12:39;100863.13;;;13.29;100.00
58975;BME280;44751;52.236;5.178;2023-04-28T13:15:07;100862.19;;;13.15;100.00
58975;BME280;44751;52.236;5.178;2023-04-28T13:17:34;100862.94;;;13.31;100.00
58975;BME280;44751;52.236;5.178;2023-04-28T13:20:00;100867.84;;;13.21;100.00
58975;BME280;44751;52.236;5.178;2023-04-28T13:22:28;100870.63;;;13.27;100.00
58975;BME280;44751;52.236;5.178;2023-04-28T13:24:54;100878.34;;;13.30;100.00
58975;BME280;44751;52.236;5.178;2023-04-28T13:27:21;100876.69;;;13.29;100.00
58975;BME280;44751;52.236;5.178;2023-04-28T13:29:48;100875.66;;;13.30;100.00
58975;BME280;44751;52.236;5.178;2023-04-28T13:32:14;100877.78;;;13.35;100.00
58975;BME280;44751;52.236;5.178;2023-04-28T13:34:41;100869.75;;;13.20;100.00
58975;BME280;44751;52.236;5.178;2023-04-28T13:37:14;100870.91;;;13.11;100.00
58975;BME280;44751;52.236;5.178;2023-04-28T13:39:40;100879.69;;;13.13;100.00
58975;BME280;44751;52.236;5.178;2023-04-28T13:42:07;100872.59;;;13.12;100.00
58975;BME280;44751;52.236;5.178;2023-04-28T13:44:33;100874.75;;;13.23;100.00
58975;BME280;44751;52.236;5.178;2023-04-28T13:47:07;100874.16;;;12.99;100.00
58975;BME280;44751;52.236;5.178;2023-04-28T13:49:41;100872.94;;;13.02;100.00
58975;BME280;44751;52.236;5.178;2023-04-28T13:52:08;100876.59;;;13.16;100.00
58975;BME280;44751;52.236;5.178;2023-04-28T13:54:34;100882.47;;;12.98;100.00
58975;BME280;44751;52.236;5.178;2023-04-28T13:57:03;100881.44;;;12.99;100.00
58975;BME280;44751;52.236;5.178;2023-04-28T13:59:33;100880.59;;;12.98;100.00
58975;BME280;44751;52.236;5.178;2023-04-28T14:01:59;100874.78;;;13.01;100.00
58975;BME280;44751;52.236;5.178;2023-04-28T14:04:26;100870.81;;;12.97;100.00
58975;BME280;44751;52.236;5.178;2023-04-28T14:06:52;100878.53;;;13.00;100.00
58975;BME280;44751;52.236;5.178;2023-04-28T14:09:22;100880.28;;;12.86;100.00
58975;BME280;44751;52.236;5.178;2023-04-28T14:11:56;100879.19;;;12.81;100.00
58975;BME280;44751;52.236;5.178;2023-04-28T14:14:23;100880.66;;;13.05;100.00
58975;BME280;44751;52.236;5.178;2023-04-28T14:16:49;100881.44;;;12.99;100.00
58975;BME280;44751;52.236;5.178;2023-04-28T14:19:16;100885.06;;;13.06;100.00
58975;BME280;44751;52.236;5.178;2023-04-28T14:21:45;100881.69;;;13.04;100.00
58975;BME280;44751;52.236;5.178;2023-04-28T14:24:12;100882.97;;;13.08;100.00
58975;BME280;44751;52.236;5.178;2023-04-28T14:26:38;100891.94;;;13.09;100.00
58975;BME280;44751;52.236;5.178;2023-04-28T14:29:08;100900.78;;;12.96;100.00
58975;BME280;44751;52.236;5.178;2023-04-28T14:31:34;100903.50;;;12.96;100.00
58975;BME280;44751;52.236;5.178;2023-04-28T14:34:03;100891.56;;;12.90;100.00
58975;BME280;44751;52.236;5.178;2023-04-28T14:36:31;100893.63;;;12.88;100.00
58975;BME280;44751;52.236;5.178;2023-04-28T14:38:58;100892.28;;;12.99;100.00
58975;BME280;44751;52.236;5.178;2023-04-28T14:41:25;100890.13;;;12.94;100.00
58975;BME280;44751;52.236;5.178;2023-04-28T14:43:52;100890.22;;;12.79;100.00
58975;BME280;44751;52.236;5.178;2023-04-28T14:46:28;100896.06;;;12.83;100.00
58975;BME280;44751;52.236;5.178;2023-04-28T14:48:57;100891.38;;;12.91;100.00
58975;BME280;44751;52.236;5.178;2023-04-28T14:51:24;100890.09;;;12.87;100.00
58975;BME280;44751;52.236;5.178;2023-04-28T14:53:54;100902.91;;;12.78;100.00
58975;BME280;44751;52.236;5.178;2023-04-28T14:56:25;100899.69;;;12.68;100.00
58975;BME280;44751;52.236;5.178;2023-04-28T14:58:52;100891.38;;;12.91;100.00
58975;BME280;44751;52.236;5.178;2023-04-28T15:01:18;100890.19;;;13.01;100.00
58975;BME280;44751;52.236;5.178;2023-04-28T15:04:02;100894.16;;;12.76;100.00
58975;BME280;44751;52.236;5.178;2023-04-28T15:06:29;100888.78;;;12.83;100.00
58975;BME280;44751;52.236;5.178;2023-04-28T15:08:57;100896.59;;;12.93;100.00
58975;BME280;44751;52.236;5.178;2023-04-28T15:11:25;100883.63;;;12.88;100.00
58975;BME280;44751;52.236;5.178;2023-04-28T15:13:55;100894.88;;;12.85;100.00
58975;BME280;44751;52.236;5.178;2023-04-28T15:16:22;100903.25;;;12.90;100.00
58975;BME280;44751;52.236;5.178;2023-04-28T15:18:48;100897.56;;;12.85;100.00
58975;BME280;44751;52.236;5.178;2023-04-28T15:21:15;100896.53;;;12.86;100.00
58975;BME280;44751;52.236;5.178;2023-04-28T15:23:41;100903.25;;;12.90;100.00
58975;BME280;44751;52.236;5.178;2023-04-28T15:26:15;100910.78;;;12.73;100.00
58975;BME280;44751;52.236;5.178;2023-04-28T15:28:43;100903.09;;;12.77;100.00
58975;BME280;44751;52.236;5.178;2023-04-28T15:31:10;100906.28;;;12.81;100.00
58975;BME280;44751;52.236;5.178;2023-04-28T15:33:37;100906.00;;;12.75;100.00
58975;BME280;44751;52.236;5.178;2023-04-28T15:36:11;100910.19;;;12.78;100.00
58975;BME280;44751;52.236;5.178;2023-04-28T15:38:37;100911.63;;;12.74;100.00
58975;BME280;44751;52.236;5.178;2023-04-28T15:41:06;100919.50;;;12.53;100.00
58975;BME280;44751;52.236;5.178;2023-04-28T15:43:33;100907.94;;;12.60;100.00
58975;BME280;44751;52.236;5.178;2023-04-28T15:46:01;100914.69;;;12.49;100.00
58975;BME280;44751;52.236;5.178;2023-04-28T15:48:28;100918.50;;;12.76;100.00
58975;BME280;44751;52.236;5.178;2023-04-28T15:50:56;100917.53;;;12.62;100.00
58975;BME280;44751;52.236;5.178;2023-04-28T15:53:22;100919.50;;;12.53;100.00
58975;BME280;44751;52.236;5.178;2023-04-28T15:55:50;100932.41;;;12.51;100.00
58975;BME280;44751;52.236;5.178;2023-04-28T15:58:18;100919.38;;;12.40;100.00
58975;BME280;44751;52.236;5.178;2023-04-28T16:00:45;100932.69;;;12.42;100.00
58975;BME280;44751;52.236;5.178;2023-04-28T16:03:13;100920.16;;;12.56;100.00
58975;BME280;44751;52.236;5.178;2023-04-28T16:05:40;100934.56;;;12.78;100.00
58975;BME280;44751;52.236;5.178;2023-04-28T16:08:06;100928.09;;;12.57;100.00
58975;BME280;44751;52.236;5.178;2023-04-28T16:10:33;100929.22;;;12.48;100.00
58975;BME280;44751;52.236;5.178;2023-04-28T16:13:06;100935.97;;;12.37;100.00
58975;BME280;44751;52.236;5.178;2023-04-28T16:15:35;100927.09;;;12.28;100.00
58975;BME280;44751;52.236;5.178;2023-04-28T16:18:02;100939.34;;;12.39;100.00
58975;BME280;44751;52.236;5.178;2023-04-28T16:20:28;100942.78;;;12.33;100.00
58975;BME280;44751;52.236;5.178;2023-04-28T16:22:58;100941.09;;;12.47;100.00
58975;BME280;44751;52.236;5.178;2023-04-28T16:25:25;100947.91;;;12.43;100.00
58975;BME280;44751;52.236;5.178;2023-04-28T16:27:52;100951.91;;;12.47;100.00
58975;BME280;44751;52.236;5.178;2023-04-28T16:30:19;100956.16;;;12.56;100.00
58975;BME280;44751;52.236;5.178;2023-04-28T16:32:45;100958.53;;;12.44;100.00
58975;BME280;44751;52.236;5.178;2023-04-28T16:35:14;100965.91;;;12.35;100.00
58975;BME280;44751;52.236;5.178;2023-04-28T16:37:41;100961.25;;;12.14;100.00
58975;BME280;44751;52.236;5.178;2023-04-28T16:40:11;100971.88;;;12.00;100.00
58975;BME280;44751;52.236;5.178;2023-04-28T16:42:39;100963.31;;;12.12;100.00
58975;BME280;44751;52.236;5.178;2023-04-28T16:45:06;100961.34;;;12.06;100.00
58975;BME280;44751;52.236;5.178;2023-04-28T16:47:33;100961.06;;;12.16;100.00
58975;BME280;44751;52.236;5.178;2023-04-28T16:49:59;100965.91;;;12.05;100.00
58975;BME280;44751;52.236;5.178;2023-04-28T16:52:28;100972.19;;;12.21;100.00
58975;BME280;44751;52.236;5.178;2023-04-28T16:55:03;100965.84;;;12.13;100.00
58975;BME280;44751;52.236;5.178;2023-04-28T16:57:40;100966.00;;;11.97;100.00
58975;BME280;44751;52.236;5.178;2023-04-28T17:00:08;100965.84;;;12.13;100.00
58975;BME280;44751;52.236;5.178;2023-04-28T17:02:35;100979.44;;;12.05;100.00
58975;BME280;44751;52.236;5.178;2023-04-28T17:05:01;100976.72;;;12.05;100.00
58975;BME280;44751;52.236;5.178;2023-04-28T17:07:30;100977.28;;;12.00;100.00
58975;BME280;44751;52.236;5.178;2023-04-28T17:10:05;100982.50;;;11.87;100.00
58975;BME280;44751;52.236;5.178;2023-04-28T17:12:35;100986.13;;;11.94;100.00
58975;BME280;44751;52.236;5.178;2023-04-28T17:15:04;100983.81;;;11.91;100.00
58975;BME280;44751;52.236;5.178;2023-04-28T17:17:39;100984.88;;;11.82;100.00
58975;BME280;44751;52.236;5.178;2023-04-28T17:20:08;100983.50;;;11.86;100.00
58975;BME280;44751;52.236;5.178;2023-04-28T17:22:35;100987.31;;;11.77;100.00
58975;BME280;44751;52.236;5.178;2023-04-28T17:25:02;100985.06;;;11.80;100.00
58975;BME280;44751;52.236;5.178;2023-04-28T17:27:32;100991.44;;;11.87;100.00
58975;BME280;44751;52.236;5.178;2023-04-28T17:29:58;100996.00;;;11.87;100.00